createdAt,value
2023-01-26T00:01:21.160Z,100661.44
2023-01-26T00:03:49.525Z,100654.06
2023-01-26T00:06:18.828Z,100646.97
2023-01-26T00:08:48.323Z,100643.47
2023-01-26T00:11:18.509Z,100650.31
2023-01-26T00:13:46.250Z,100640.00
2023-01-26T00:16:14.767Z,100636.41
2023-01-26T00:18:43.520Z,100638.19
2023-01-26T00:21:15.867Z,100641.63
2023-01-26T00:23:43.667Z,100641.00
2023-01-26T00:26:14.434Z,100640.91
2023-01-26T00:28:42.083Z,100626.91
2023-01-26T00:31:18.247Z,100634.78
2023-01-26T00:33:45.968Z,100631.22
2023-01-26T00:36:13.707Z,100632.50
2023-01-26T00:38:41.701Z,100633.19
2023-01-26T00:41:09.548Z,100634.94
2023-01-26T00:43:37.230Z,100627.97
2023-01-26T00:46:04.828Z,100630.66
2023-01-26T00:48:32.241Z,100636.13
2023-01-26T00:51:00.761Z,100632.88
2023-01-26T00:53:28.850Z,100626.19
2023-01-26T00:55:58.109Z,100620.91
2023-01-26T00:58:25.839Z,100621.91
2023-01-26T01:00:53.590Z,100615.34
2023-01-26T01:03:21.032Z,100614.62
2023-01-26T01:05:48.656Z,100623.22
2023-01-26T01:08:16.004Z,100613.16
2023-01-26T01:10:43.579Z,100618.03
2023-01-26T01:13:11.235Z,100611.66
2023-01-26T01:15:40.440Z,100615.44
2023-01-26T01:18:08.094Z,100612.69
2023-01-26T01:20:35.769Z,100610.66
2023-01-26T01:23:03.161Z,100606.87
2023-01-26T01:25:30.590Z,100606.75
2023-01-26T01:27:58.265Z,100603.34
2023-01-26T01:30:25.660Z,100602.09
2023-01-26T01:32:53.508Z,100594.78
2023-01-26T01:35:21.202Z,100607.47
2023-01-26T01:37:49.148Z,100604.25
2023-01-26T01:40:16.492Z,100598.16
2023-01-26T01:42:50.183Z,100589.84
2023-01-26T01:45:26.466Z,100592.34
2023-01-26T01:47:59.568Z,100594.09
2023-01-26T01:50:27.581Z,100585.13
2023-01-26T01:52:56.195Z,100578.59
2023-01-26T01:55:25.585Z,100586.41
2023-01-26T01:57:55.717Z,100588.06
2023-01-26T02:00:24.286Z,100577.78
2023-01-26T02:03:11.535Z,100577.41
2023-01-26T02:05:50.928Z,100575.72
2023-01-26T02:08:20.119Z,100558.56
2023-01-26T02:10:49.767Z,100570.62
2023-01-26T02:13:18.562Z,100564.34
2023-01-26T02:15:46.879Z,100566.91
2023-01-26T02:18:14.314Z,100557.78
2023-01-26T02:20:55.557Z,100563.59
2023-01-26T02:23:32.176Z,100554.28
2023-01-26T02:26:20.481Z,100545.53
2023-01-26T02:28:48.871Z,100547.72
2023-01-26T02:31:17.724Z,100537.88
2023-01-26T02:33:45.918Z,100542.78
2023-01-26T02:36:21.884Z,100538.59
2023-01-26T02:38:58.484Z,100530.06
2023-01-26T02:41:44.748Z,100522.28
2023-01-26T02:44:12.804Z,100517.19
2023-01-26T02:46:40.672Z,100515.44
2023-01-26T02:49:26.600Z,100515.88
2023-01-26T02:51:54.352Z,100507.25
2023-01-26T02:54:40.371Z,100506.69
2023-01-26T02:57:08.389Z,100497.13
2023-01-26T02:59:35.737Z,100498.00
2023-01-26T03:02:03.221Z,100490.06
2023-01-26T03:04:30.911Z,100490.03
2023-01-26T03:06:58.393Z,100485.78
2023-01-26T03:09:25.759Z,100479.25
2023-01-26T03:11:53.403Z,100487.81
2023-01-26T03:14:20.788Z,100491.88
2023-01-26T03:16:49.757Z,100481.81
2023-01-26T03:19:36.241Z,100487.09
2023-01-26T03:22:24.780Z,100473.47
2023-01-26T03:25:10.887Z,100476.97
2023-01-26T03:27:44.712Z,100479.12
2023-01-26T03:30:15.093Z,100474.72
2023-01-26T03:32:43.551Z,100468.69
2023-01-26T03:35:15.159Z,100460.03
2023-01-26T03:37:46.641Z,100461.19
2023-01-26T03:40:35.063Z,100462.28
2023-01-26T03:43:26.304Z,100456.47
2023-01-26T03:46:12.827Z,100461.41
2023-01-26T03:48:59.305Z,100453.53
2023-01-26T03:51:45.104Z,100452.97
2023-01-26T03:54:31.746Z,100446.41
2023-01-26T03:56:59.810Z,100447.22
2023-01-26T03:59:39.881Z,100446.53
2023-01-26T04:02:27.952Z,100433.84
2023-01-26T04:05:14.852Z,100438.22
2023-01-26T04:08:01.254Z,100435.19
2023-01-26T04:10:29.337Z,100430.63
2023-01-26T04:13:15.144Z,100438.94
2023-01-26T04:16:02.021Z,100436.66
2023-01-26T04:18:47.806Z,100432.28
2023-01-26T04:21:33.422Z,100429.47
2023-01-26T04:24:02.236Z,100425.31
2023-01-26T04:26:37.604Z,100426.13
2023-01-26T04:29:13.688Z,100424.91
2023-01-26T04:31:42.381Z,100425.09
2023-01-26T04:34:13.244Z,100420.56
2023-01-26T04:36:42.181Z,100416.44
2023-01-26T04:39:10.247Z,100409.94
2023-01-26T04:41:40.107Z,100413.97
2023-01-26T04:44:09.197Z,100415.47
2023-01-26T04:46:36.674Z,100418.25
2023-01-26T04:49:04.324Z,100409.72
2023-01-26T04:51:32.125Z,100411.31
2023-01-26T04:53:59.565Z,100411.81
2023-01-26T04:56:30.178Z,100410.78
2023-01-26T04:59:06.196Z,100408.25
2023-01-26T05:01:34.243Z,100413.31
2023-01-26T05:04:04.350Z,100399.50
2023-01-26T05:06:32.845Z,100408.81
2023-01-26T05:09:00.281Z,100411.62
2023-01-26T05:11:28.066Z,100410.13
2023-01-26T05:13:55.609Z,100411.62
2023-01-26T05:16:23.177Z,100405.53
2023-01-26T05:18:51.045Z,100403.06
2023-01-26T05:21:18.603Z,100408.84
2023-01-26T05:23:46.141Z,100400.38
2023-01-26T05:26:14.447Z,100406.84
2023-01-26T05:28:43.517Z,100406.84
2023-01-26T05:31:11.003Z,100400.50
2023-01-26T05:33:38.752Z,100402.38
2023-01-26T05:36:08.193Z,100406.44
2023-01-26T05:38:35.894Z,100392.81
2023-01-26T05:41:04.031Z,100407.16
2023-01-26T05:43:33.524Z,100406.44
2023-01-26T05:46:04.153Z,100410.78
2023-01-26T05:48:31.723Z,100409.03
2023-01-26T05:50:59.156Z,100409.00
2023-01-26T05:53:26.978Z,100411.62
2023-01-26T05:55:54.577Z,100410.69
2023-01-26T05:58:22.200Z,100414.47
2023-01-26T06:00:49.972Z,100416.81
2023-01-26T06:03:19.058Z,100413.31
2023-01-26T06:05:53.757Z,100417.81
2023-01-26T06:08:22.136Z,100411.81
2023-01-26T06:10:49.870Z,100414.41
2023-01-26T06:13:17.340Z,100411.62
2023-01-26T06:15:45.052Z,100407.25
2023-01-26T06:18:12.612Z,100408.22
2023-01-26T06:20:44.202Z,100413.37
2023-01-26T06:23:12.617Z,100400.69
2023-01-26T06:25:40.369Z,100404.13
2023-01-26T06:28:08.092Z,100408.47
2023-01-26T06:30:36.061Z,100407.34
2023-01-26T06:33:06.927Z,100401.47
2023-01-26T06:35:36.037Z,100407.31
2023-01-26T06:38:04.112Z,100406.66
2023-01-26T06:40:31.622Z,100402.97
2023-01-26T06:42:59.061Z,100401.38
2023-01-26T06:45:27.076Z,100398.97
2023-01-26T06:47:55.293Z,100403.31
2023-01-26T06:50:26.437Z,100400.50
2023-01-26T06:52:56.687Z,100395.41
2023-01-26T06:55:35.060Z,100397.91
2023-01-26T06:58:05.989Z,100395.41
2023-01-26T07:00:33.688Z,100397.00
2023-01-26T07:03:01.232Z,100399.00
2023-01-26T07:05:28.898Z,100395.50
2023-01-26T07:07:56.292Z,100398.00
2023-01-26T07:10:23.680Z,100399.19
2023-01-26T07:12:51.452Z,100395.41
2023-01-26T07:15:18.872Z,100394.31
2023-01-26T07:17:46.296Z,100396.97
2023-01-26T07:20:14.523Z,100393.81
2023-01-26T07:22:41.946Z,100390.13
2023-01-26T07:25:09.439Z,100386.88
2023-01-26T07:27:37.091Z,100389.44
2023-01-26T07:30:05.405Z,100384.88
2023-01-26T07:32:32.769Z,100388.44
2023-01-26T07:35:00.484Z,100392.03
2023-01-26T07:37:29.030Z,100377.34
2023-01-26T07:39:56.737Z,100385.09
2023-01-26T07:42:24.391Z,100380.22
2023-01-26T07:44:56.803Z,100381.31
2023-01-26T07:47:24.474Z,100378.75
2023-01-26T07:49:51.893Z,100372.00
2023-01-26T07:52:19.338Z,100375.34
2023-01-26T07:54:46.965Z,100378.03
2023-01-26T07:57:14.602Z,100386.25
2023-01-26T07:59:42.388Z,100389.59
2023-01-26T08:02:10.587Z,100385.38
2023-01-26T08:04:38.224Z,100381.84
2023-01-26T08:07:05.660Z,100381.22
2023-01-26T08:09:33.164Z,100385.50
2023-01-26T08:12:01.457Z,100377.88
2023-01-26T08:14:38.361Z,100379.72
2023-01-26T08:17:13.753Z,100381.50
2023-01-26T08:19:41.131Z,100381.50
2023-01-26T08:22:08.682Z,100375.41
2023-01-26T08:24:36.348Z,100374.59
2023-01-26T08:27:03.852Z,100371.84
2023-01-26T08:29:31.276Z,100369.56
2023-01-26T08:31:58.987Z,100372.97
2023-01-26T08:34:26.634Z,100382.28
2023-01-26T08:36:53.984Z,100373.63
2023-01-26T08:39:21.600Z,100373.78
2023-01-26T08:41:49.072Z,100377.16
2023-01-26T08:44:16.671Z,100379.09
2023-01-26T08:46:44.657Z,100373.78
2023-01-26T08:49:12.089Z,100370.41
2023-01-26T08:51:39.434Z,100370.34
2023-01-26T08:54:08.287Z,100371.81
2023-01-26T08:56:35.924Z,100374.81
2023-01-26T08:59:03.287Z,100365.47
2023-01-26T09:01:31.080Z,100368.59
2023-01-26T09:03:58.583Z,100376.50
2023-01-26T09:06:27.676Z,100371.03
2023-01-26T09:08:55.310Z,100375.34
2023-01-26T09:11:22.905Z,100382.03
2023-01-26T09:13:56.595Z,100370.09
2023-01-26T09:16:24.919Z,100383.19
2023-01-26T09:18:53.592Z,100372.94
2023-01-26T09:21:21.982Z,100372.94
2023-01-26T09:23:50.070Z,100374.53
2023-01-26T09:26:17.546Z,100376.06
2023-01-26T09:28:44.982Z,100375.44
2023-01-26T09:31:12.785Z,100367.69
2023-01-26T09:33:40.439Z,100368.75
2023-01-26T09:36:10.119Z,100372.19
2023-01-26T09:38:38.776Z,100374.34
2023-01-26T09:41:18.221Z,100359.31
2023-01-26T09:43:57.768Z,100361.88
2023-01-26T09:46:32.705Z,100352.34
2023-01-26T09:49:11.608Z,100347.34
2023-01-26T09:52:00.586Z,100347.19
2023-01-26T09:54:32.760Z,100351.53
2023-01-26T09:57:13.618Z,100348.97
2023-01-26T09:59:51.339Z,100343.50
2023-01-26T10:02:46.973Z,100343.62
2023-01-26T10:05:21.712Z,100333.56
2023-01-26T10:07:49.063Z,100325.00
2023-01-26T10:10:22.535Z,100324.19
2023-01-26T10:12:51.710Z,100318.13
2023-01-26T10:15:30.922Z,100324.06
2023-01-26T10:18:02.105Z,100315.81
2023-01-26T10:20:33.186Z,100310.47
2023-01-26T10:23:12.578Z,100308.56
2023-01-26T10:25:41.597Z,100304.38
2023-01-26T10:28:14.554Z,100298.59
2023-01-26T10:30:43.757Z,100292.72
2023-01-26T10:33:26.720Z,100297.50
2023-01-26T10:35:54.600Z,100289.94
2023-01-26T10:38:33.980Z,100286.53
2023-01-26T10:41:04.036Z,100281.56
2023-01-26T10:43:36.205Z,100272.19
2023-01-26T10:46:04.712Z,100280.84
2023-01-26T10:48:32.481Z,100274.97
2023-01-26T10:51:15.440Z,100274.72
2023-01-26T10:53:43.055Z,100278.16
2023-01-26T10:56:17.179Z,100276.31
2023-01-26T10:58:48.434Z,100276.72
2023-01-26T11:01:18.849Z,100271.03
2023-01-26T11:04:04.614Z,100264.75
2023-01-26T11:06:32.496Z,100265.44
2023-01-26T11:09:15.363Z,100259.34
2023-01-26T11:11:44.799Z,100255.34
2023-01-26T11:14:16.730Z,100259.44
2023-01-26T11:16:47.798Z,100257.66
2023-01-26T11:19:45.103Z,100247.41
2023-01-26T11:22:19.489Z,100251.88
2023-01-26T11:25:08.099Z,100245.97
2023-01-26T11:28:00.519Z,100236.50
2023-01-26T11:30:45.258Z,100231.97
2023-01-26T11:33:35.603Z,100226.63
2023-01-26T11:36:09.805Z,100235.34
2023-01-26T11:38:43.107Z,100231.50
2023-01-26T11:41:56.367Z,100234.47
2023-01-26T11:44:42.336Z,100225.78
2023-01-26T11:47:22.804Z,100232.09
2023-01-26T11:57:50.353Z,100201.16
2023-01-26T12:00:56.753Z,100205.09
2023-01-26T12:03:53.437Z,100192.66
2023-01-26T12:07:01.922Z,100187.78
2023-01-26T12:10:10.166Z,100171.75
2023-01-26T12:24:12.853Z,100167.94
2023-01-26T12:35:28.304Z,100161.22
2023-01-26T12:38:52.931Z,100162.94
2023-01-26T12:42:12.407Z,100161.84
2023-01-26T12:53:10.019Z,100147.16
2023-01-26T13:11:55.368Z,100140.75
2023-01-26T13:15:06.323Z,100139.81
2023-01-26T13:22:16.595Z,100135.53
2023-01-26T13:25:39.141Z,100129.31
2023-01-26T13:32:29.850Z,100121.06
2023-01-26T13:36:13.958Z,100124.59
2023-01-26T13:40:04.527Z,100127.34
2023-01-26T13:43:01.842Z,100126.53
2023-01-26T13:47:03.208Z,100131.28
2023-01-26T13:50:05.340Z,100129.88
2023-01-26T13:57:22.809Z,100134.97
2023-01-26T14:03:34.329Z,100129.44
2023-01-26T14:06:42.487Z,100112.41
2023-01-26T14:16:19.044Z,100126.78
2023-01-26T14:19:42.570Z,100121.44
2023-01-26T14:33:57.762Z,100131.94
2023-01-26T14:37:23.669Z,100131.97
2023-01-26T14:43:59.545Z,100132.13
2023-01-26T14:47:17.510Z,100121.78
2023-01-26T14:54:20.129Z,100116.34
2023-01-26T15:01:27.280Z,100112.06
2023-01-26T15:04:43.946Z,100117.88
2023-01-26T15:28:41.952Z,100118.87
2023-01-26T15:35:16.768Z,100121.34
2023-01-26T15:38:03.984Z,100123.69
2023-01-26T15:52:27.472Z,100118.03
2023-01-26T15:55:41.762Z,100122.41
2023-01-26T16:02:07.286Z,100120.75
2023-01-26T16:05:15.075Z,100119.44
2023-01-26T16:11:28.896Z,100125.47
2023-01-26T16:14:34.992Z,100131.78
2023-01-26T16:17:39.960Z,100124.00
2023-01-26T16:21:41.914Z,100121.28
2023-01-26T16:25:27.316Z,100126.72
2023-01-26T16:28:58.080Z,100125.09
2023-01-26T16:32:20.699Z,100125.44
2023-01-26T16:35:17.875Z,100120.00
2023-01-26T16:45:54.604Z,100127.31
2023-01-26T16:58:59.127Z,100116.09
2023-01-26T17:02:22.333Z,100117.34
2023-01-26T17:06:27.465Z,100117.69
2023-01-26T17:09:29.669Z,100109.81
2023-01-26T17:12:35.012Z,100109.06
2023-01-26T17:15:57.703Z,100103.88
2023-01-26T17:19:08.991Z,100098.56
2023-01-26T17:22:15.300Z,100106.41
2023-01-26T17:25:22.869Z,100103.19
2023-01-26T17:28:27.736Z,100098.88
2023-01-26T17:42:21.335Z,100092.84
2023-01-26T17:45:27.785Z,100093.09
2023-01-26T17:48:51.302Z,100091.16
2023-01-26T17:51:40.304Z,100086.56
2023-01-26T18:04:09.386Z,100083.94
2023-01-26T18:07:33.834Z,100084.91
2023-01-26T18:16:58.102Z,100094.44
2023-01-26T18:19:25.842Z,100083.12
2023-01-26T18:21:53.285Z,100082.09
2023-01-26T18:24:20.733Z,100094.81
2023-01-26T18:27:27.976Z,100095.50
2023-01-26T18:30:52.194Z,100094.91
2023-01-26T18:43:48.369Z,100093.03
2023-01-26T18:46:16.285Z,100087.06
2023-01-26T18:48:44.148Z,100089.62
2023-01-26T18:51:11.743Z,100092.50
2023-01-26T18:53:40.205Z,100086.78
2023-01-26T18:56:10.388Z,100088.59
2023-01-26T18:58:39.378Z,100079.88
2023-01-26T19:01:10.714Z,100082.69
2023-01-26T19:03:41.692Z,100080.91
2023-01-26T19:06:10.002Z,100074.16
2023-01-26T19:08:38.177Z,100081.97
2023-01-26T19:11:07.009Z,100075.78
2023-01-26T19:13:35.376Z,100079.12
2023-01-26T19:16:03.345Z,100074.16
2023-01-26T19:18:30.747Z,100067.31
2023-01-26T19:21:00.238Z,100070.69
2023-01-26T19:23:28.077Z,100061.31
2023-01-26T19:25:56.227Z,100066.22
2023-01-26T19:28:25.265Z,100062.28
2023-01-26T19:31:02.310Z,100056.06
2023-01-26T19:33:31.744Z,100063.81
2023-01-26T19:36:02.866Z,100056.50
2023-01-26T19:38:33.302Z,100053.13
2023-01-26T19:41:02.443Z,100050.75
2023-01-26T19:43:30.356Z,100045.53
2023-01-26T19:45:57.977Z,100047.44
2023-01-26T19:48:26.863Z,100049.56
2023-01-26T19:50:59.915Z,100043.06
2023-01-26T19:53:28.189Z,100048.50
2023-01-26T19:55:56.608Z,100046.19
2023-01-26T19:58:24.372Z,100042.78
2023-01-26T20:00:58.374Z,100046.50
2023-01-26T20:03:26.609Z,100044.91
2023-01-26T20:05:56.699Z,100049.03
2023-01-26T20:08:26.464Z,100053.47
2023-01-26T20:10:54.492Z,100045.91
2023-01-26T20:13:24.648Z,100056.06
2023-01-26T20:15:58.392Z,100052.62
2023-01-26T20:18:26.767Z,100058.66
2023-01-26T20:20:55.877Z,100046.81
2023-01-26T20:23:23.829Z,100047.03
2023-01-26T20:25:54.282Z,100047.84
2023-01-26T20:28:23.101Z,100030.41
2023-01-26T20:30:55.532Z,100045.81
2023-01-26T20:33:23.033Z,100034.78
2023-01-26T20:35:52.057Z,100048.41
2023-01-26T20:38:19.780Z,100053.66
2023-01-26T20:40:47.366Z,100047.66
2023-01-26T20:43:15.917Z,100054.44
2023-01-26T20:45:44.227Z,100041.63
2023-01-26T20:48:12.244Z,100039.75
2023-01-26T20:50:41.579Z,100049.50
2023-01-26T20:53:11.631Z,100042.19
2023-01-26T20:55:39.345Z,100035.47
2023-01-26T20:58:07.151Z,100043.16
2023-01-26T21:00:36.076Z,100031.78
2023-01-26T21:03:03.596Z,100033.37
2023-01-26T21:05:31.115Z,100028.19
2023-01-26T21:07:58.800Z,100034.34
2023-01-26T21:10:26.384Z,100035.12
2023-01-26T21:12:53.799Z,100029.97
2023-01-26T21:15:21.497Z,100034.25
2023-01-26T21:17:48.915Z,100026.69
2023-01-26T21:20:16.477Z,100024.13
2023-01-26T21:22:44.328Z,100034.44
2023-01-26T21:25:12.276Z,100025.53
2023-01-26T21:27:39.657Z,100019.03
2023-01-26T21:30:07.822Z,100021.75
2023-01-26T21:32:35.286Z,100018.31
2023-01-26T21:35:02.676Z,100002.78
2023-01-26T21:37:30.369Z,100007.97
2023-01-26T21:39:57.977Z,100014.56
2023-01-26T21:42:25.417Z,100009.44
2023-01-26T21:45:12.485Z,100004.50
2023-01-26T21:47:41.070Z,100005.41
2023-01-26T21:50:09.388Z,100001.03
2023-01-26T21:52:55.318Z,99998.28
2023-01-26T21:55:23.038Z,99997.44
2023-01-26T21:58:08.783Z,99994.66
2023-01-26T22:00:36.588Z,99997.38
2023-01-26T22:03:04.233Z,99988.63
2023-01-26T22:05:31.627Z,99992.13
2023-01-26T22:07:59.024Z,99987.09
2023-01-26T22:10:26.666Z,99996.75
2023-01-26T22:12:54.028Z,99985.97
2023-01-26T22:15:21.428Z,99984.41
2023-01-26T22:17:50.471Z,99988.50
2023-01-26T22:20:17.919Z,99985.81
2023-01-26T22:22:45.298Z,99987.34
2023-01-26T22:25:13.078Z,99977.09
2023-01-26T22:27:41.015Z,99982.97
2023-01-26T22:30:09.216Z,99971.03
2023-01-26T22:32:36.885Z,99977.81
2023-01-26T22:35:04.539Z,99981.78
2023-01-26T22:37:31.963Z,99970.31
2023-01-26T22:39:59.641Z,99976.03
2023-01-26T22:42:27.051Z,99973.44
2023-01-26T22:44:54.652Z,99967.06
2023-01-26T22:47:22.415Z,99967.09
2023-01-26T22:49:49.793Z,99968.16
2023-01-26T22:52:17.177Z,99964.59
2023-01-26T22:54:44.891Z,99962.09
2023-01-26T22:57:12.259Z,99953.75
2023-01-26T22:59:39.765Z,99956.84
2023-01-26T23:02:07.641Z,99956.00
2023-01-26T23:04:35.031Z,99951.09
2023-01-26T23:07:02.393Z,99954.50
2023-01-26T23:09:30.175Z,99953.63
2023-01-26T23:12:01.513Z,99955.47
2023-01-26T23:14:29.846Z,99958.56
2023-01-26T23:16:58.161Z,99944.91
2023-01-26T23:19:25.707Z,99948.75
2023-01-26T23:21:53.313Z,99949.72
2023-01-26T23:24:21.094Z,99944.81
2023-01-26T23:26:48.452Z,99935.34
2023-01-26T23:29:15.816Z,99944.16
2023-01-26T23:31:43.742Z,99941.28
2023-01-26T23:34:11.182Z,99944.69
2023-01-26T23:36:38.676Z,99945.56
2023-01-26T23:39:06.393Z,99936.84
2023-01-26T23:41:33.771Z,99946.44
2023-01-26T23:44:01.261Z,99937.41
2023-01-26T23:46:29.142Z,99929.56
2023-01-26T23:48:56.605Z,99934.81
2023-01-26T23:51:24.034Z,99925.00
2023-01-26T23:53:51.747Z,99933.72
2023-01-26T23:56:19.227Z,99922.44
2023-01-26T23:58:46.620Z,99927.41
